Terminal Aerodrome Forecast
Issued by NWS

Home | Current Version | Previous Version | Text Only | Print | Product List | Glossary On
Versions: 1 2 3 4 5 6 7 8 9 10 11 12 13 14 15 16 17 18 19 20 21 22 23 24 25 26 27 28 29 30 31 32 33 34 35
000
FTUS43 KDTX 222300
TAFPTK
TAF
KPTK 222325Z 2300/2324 04005KT P6SM SCT040 BKN140
     FM230700 04005KT 4SM BR FEW015 SCT140
     FM230900 04003KT 2SM BR SCT006
     FM231300 06004KT 5SM HZ SCT150
     FM231500 07006KT P6SM SCT040
     FM232300 10006KT P6SM SCT060=

USA.gov is the U.S. government's official web portal to all federal, state and local government web resources and services.